• Join FlightAware (Why Join?)
  • Login
  • US Flag 
02:17PM EST


 

Airport Tracker/Info


-or-


 

Live Flight TrackerFlight Track Log ✈ AWI3778 ✈ 09-Aug-2013 ✈ KBTV - KPHL

Flight Track Log - Related Links

Times and Time Zones

All times are in EDT time to prevent confusion due to time zone crossing. See the AWI3778 flight status page for this flight to view local times or setup timezone preferences in your user account.

Time Position Orientation Groundspeed Altitude Reporting Facility
EDT Latitude Longitude Course Direction KTS MPH feet Rate Location/Type
03:03PM 44.0758 -73.2964 196° South  Level FlightAware Approximate
03:03PM 44.3150 -73.2031 195° South 273 314 6,200  Level Boston Center
03:04PM 43.9783 -73.3354 196° South  Level FlightAware Approximate
03:04PM 44.2481 -73.2517 207° Southwest 281 323 8,700  Level Boston Center
03:05PM 43.8807 -73.3738 195° South  Level FlightAware Approximate
03:05PM 44.1956 -73.3031 215° Southwest 288 331 10,600  Level Boston Center
03:06PM 43.7827 -73.4100 195° South  Level FlightAware Approximate
03:06PM 44.0969 -73.3767 208° Southwest 307 353 11,700  Level Boston Center
03:07PM 43.6846 -73.4462 195° South  Level FlightAware Approximate
03:07PM 44.0031 -73.4069 193° South 338 389 13,100  Level Boston Center
03:08PM 43.5866 -73.4821 195° South  Level FlightAware Approximate
03:08PM 43.9050 -73.4372 193° South 357 411 14,900  Level Boston Center
03:09PM 43.8086 -73.4700 194° South 367 422 16,500 1,260 Climbing Boston Center
03:10PM 43.7106 -73.5028 194° South 361 415 17,500 900 Climbing Boston Center
03:11PM 43.6228 -73.5300 193° South 361 415 18,400 840 Climbing Boston Center
03:12PM 43.5203 -73.5653 194° South 361 415 19,200 780 Climbing Boston Center
03:13PM 43.4200 -73.5950 192° South 366 421 20,000 540 Climbing Boston Center
03:14PM 43.3175 -73.6300 194° South 371 427 20,400 480 Climbing Boston Center
03:15PM 43.2150 -73.6594 192° South 377 434 21,100 1,140 Climbing Boston Center
03:16PM 43.0936 -73.6969 193° South 382 440 23,000 1,320 Climbing Boston Center
03:17PM 42.9975 -73.7317 195° South 369 425 23,800 480 Climbing Boston Center
03:18PM 42.9317 -73.8267 227° Southwest 337 388 24,000 60 Climbing Boston Center
03:19PM 42.8636 -73.9328 229° Southwest 351 404 24,000  Level Boston Center
03:20PM 42.7956 -74.0331 227° Southwest 364 419 24,000  Level Boston Center
03:21PM 42.7317 -74.1361 230° Southwest 370 426 24,000  Level Boston Center
03:22PM 42.6592 -74.2414 227° Southwest 370 426 24,000  Level Boston Center
03:23PM 42.5842 -74.3575 229° Southwest 375 432 24,000  Level Boston Center
03:24PM 42.5181 -74.4542 227° Southwest 380 437 24,000  Level Boston Center
03:25PM 42.4453 -74.5617 227° Southwest 386 444 24,000  Level Boston Center
03:26PM 42.3722 -74.6714 228° Southwest 381 438 24,000  Level Boston Center
03:27PM 42.3014 -74.7783 228° Southwest 381 438 24,000 -660 Level Boston Center
03:28PM 42.2325 -74.8797 227° Southwest 376 433 22,700 -1,380 Descending Boston Center
03:29PM 42.1594 -74.9778 225° Southwest 376 433 21,300 -1,380 Descending Boston Center
03:31PM 42.0197 -75.0867 210° Southwest 375 432 19,100 -900 Descending New York Center
03:32PM 41.9339 -75.1619 213° Southwest 375 432 19,000 -60 Descending New York Center
03:33PM 41.8586 -75.2211 210° Southwest 368 423 19,000 -900 Level New York Center
03:34PM 41.7642 -75.2981 211° Southwest 363 418 17,200 -1,800 Descending New York Center
03:35PM 41.6825 -75.3647 211° Southwest 358 412 15,400 -1,740 Descending New York Center
03:36PM 41.6031 -75.4286 211° Southwest 351 404 13,700 -1,560 Descending New York Center
03:37PM 41.5342 -75.4822 210° Southwest 338 389 12,300 -960 Descending New York Center
03:38PM 41.4567 -75.5431 210° Southwest 338 389 11,900 -240 Descending New York Center
03:39PM 41.3728 -75.6117 212° Southwest 332 382 11,900  Level New York Center
03:40PM 41.2911 -75.6722 209° Southwest 337 388 12,000  Climbing New York Center
03:41PM 41.1989 -75.6875 187° South 326 375 12,000  Level New York Center
03:42PM 41.1031 -75.6889 181° South 342 394 12,000  Level New York Center
03:43PM 41.0175 -75.6881 180° South 349 402 12,000  Level New York Center
03:44PM 40.9239 -75.6869 179° South 349 402 12,000  Level New York Center
03:45PM 40.8217 -75.6878 180° South 349 402 12,000  Level New York Center
03:46PM 40.7281 -75.6864 179° South 349 402 12,000 -60 Level New York Center
03:47PM 40.6322 -75.6878 181° South 349 402 11,900 -300 Descending New York Center
03:48PM 40.5572 -75.6333 151° Southeast 339 390 11,500 -720 Descending New York Center
03:49PM 40.5031 -75.5311 125° Southeast 326 375 10,500 -1,020 Descending New York Center
03:50PM 40.4422 -75.4342 129° Southeast 316 364 9,500 -1,020 Descending New York Center
03:51PM 40.3644 -75.3989 161° South 300 345 8,500 -1,020 Descending New York Center
03:52PM 40.2950 -75.3672 161° South 299 344 7,500 -1,020 Descending New York Center
03:53PM 40.2172 -75.3319 161° South 299 344 6,500 -1,020 Descending New York Center
03:54PM 40.1372 -75.2942 160° South 291 335 5,500 -840 Descending New York Center
03:55PM 40.0833 -75.2333 139° Southeast 255 293 5,100 -360 Descending Philadelphia TRACON
03:56PM 40.0333 -75.2000 153° Southeast 212 244 4,900 -600 Descending Philadelphia TRACON
03:57PM 39.9833 -75.1833 166° South 220 253 4,000 -480 Descending Philadelphia TRACON
03:58PM 39.9167 -75.1500 159° South 204 235 4,000 -240 Level Philadelphia TRACON
03:59PM 39.8833 -75.1333 159° South 194 223 3,600 -480 Descending Philadelphia TRACON
04:00PM 39.8167 -75.1000 159° South 186 214 3,000 -300 Descending Philadelphia TRACON
04:01PM 39.7667 -75.0833 166° South 179 206 3,000 -600 Level Philadelphia TRACON
04:02PM 39.7500 -75.1167 237° Southwest 162 186 1,800 -720 Descending Philadelphia TRACON
04:03PM 39.7500 -75.1667 270° West 183 211 1,600 -240 Descending Philadelphia TRACON
04:04PM 39.8000 -75.1833 346° North 193 222 1,400 -480 Descending Philadelphia TRACON
04:05PM 39.8333 -75.2167 322° Northwest 151 174 800 -600 Descending Philadelphia TRACON